Time;durP1;ratioP1;P1;durP2;ratioP2;P2;SDS_P1;SDS_P2;PMS_P1;PMS_P2;Temp;Humidity;BMP_temperature;BMP_pressure;BME280_temperature;BME280_humidity;BME280_pressure;Samples;Min_cycle;Max_cycle;Signal;HPM_P1;HPM_P2
2023/01/18 00:01:00;;;;;;;2.10;2.00;;;1.40;99.90;;;;;;5022159;28;21021;-77
2023/01/18 00:03:27;;;;;;;2.40;2.13;;;1.40;99.90;;;;;;5023251;28;20463;-77
2023/01/18 00:05:55;;;;;;;5.07;2.23;;;1.20;99.90;;;;;;5014100;28;20502;-82
2023/01/18 00:08:21;;;;;;;2.53;1.83;;;0.80;99.90;;;;;;5009627;28;20505;-78
2023/01/18 00:10:49;;;;;;;3.27;2.10;;;1.30;99.90;;;;;;5009648;28;20459;-77
2023/01/18 00:13:16;;;;;;;2.37;2.17;;;1.10;99.90;;;;;;5007264;28;20444;-78
2023/01/18 00:15:43;;;;;;;2.80;1.93;;;1.10;99.90;;;;;;5025116;28;20454;-78
2023/01/18 00:18:11;;;;;;;4.90;2.00;;;2.40;99.90;;;;;;5024048;28;20441;-78
2023/01/18 00:20:38;;;;;;;2.97;2.50;;;1.10;99.90;;;;;;5014053;28;20443;-78
2023/01/18 00:23:04;;;;;;;2.90;2.70;;;1.10;99.90;;;;;;5013272;28;20526;-79
2023/01/18 00:25:31;;;;;;;3.33;2.40;;;1.00;99.90;;;;;;5023203;28;20750;-78
2023/01/18 00:27:59;;;;;;;2.83;2.10;;;0.80;99.90;;;;;;5015054;28;20444;-79
2023/01/18 00:30:28;;;;;;;1.80;1.60;;;0.90;99.90;;;;;;5020810;28;20497;-78
2023/01/18 00:32:57;;;;;;;1.63;1.53;;;0.80;99.90;;;;;;5017296;28;20451;-79
2023/01/18 00:35:24;;;;;;;2.30;1.83;;;1.10;99.90;;;;;;5016697;28;20449;-78
2023/01/18 00:37:52;;;;;;;2.27;2.07;;;1.00;99.90;;;;;;5014264;28;20450;-78
2023/01/18 00:40:20;;;;;;;4.70;2.23;;;0.90;99.90;;;;;;5016535;28;20577;-78
2023/01/18 00:45:32;;;;;;;3.10;2.03;;;0.70;99.90;;;;;;5018808;28;20485;-79
2023/01/18 00:48:01;;;;;;;3.07;2.10;;;0.70;99.90;;;;;;5019083;28;20451;-79
2023/01/18 00:50:28;;;;;;;2.53;2.07;;;0.50;99.90;;;;;;5018674;28;20466;-78
2023/01/18 00:52:56;;;;;;;3.53;2.30;;;0.40;99.90;;;;;;5019955;28;20972;-79
2023/01/18 00:55:22;;;;;;;4.47;2.50;;;0.40;99.90;;;;;;5012771;28;20476;-79
2023/01/18 00:57:49;;;;;;;3.13;2.50;;;3.00;99.90;;;;;;5012116;28;20443;-78
2023/01/18 01:00:19;;;;;;;2.83;2.20;;;0.50;99.90;;;;;;5012598;28;20448;-79
2023/01/18 01:02:47;;;;;;;3.83;2.43;;;0.20;99.90;;;;;;5020130;28;20445;-78
2023/01/18 01:08:04;;;;;;;2.67;2.07;;;0.20;99.90;;;;;;5015884;28;20439;-78
2023/01/18 01:10:31;;;;;;;2.80;2.10;;;0.10;99.90;;;;;;5015709;28;20814;-79
2023/01/18 01:26:41;;;;;;;4.23;2.73;;;0.10;99.90;;;;;;5012448;28;20533;-77
2023/01/18 01:29:08;;;;;;;5.13;3.50;;;0.00;99.90;;;;;;5013811;28;20474;-78
2023/01/18 01:31:35;;;;;;;4.27;3.67;;;0.50;99.90;;;;;;5015561;28;20459;-79
2023/01/18 01:34:03;;;;;;;3.77;3.37;;;-0.20;99.90;;;;;;5019343;28;20479;-80
2023/01/18 01:36:30;;;;;;;3.60;3.33;;;-0.30;99.90;;;;;;5024261;28;20872;-79
2023/01/18 01:38:57;;;;;;;4.13;3.47;;;0.80;99.90;;;;;;5019890;28;20553;-78
2023/01/18 01:41:26;;;;;;;4.03;3.00;;;-0.10;99.90;;;;;;5017541;28;20501;-78
2023/01/18 01:43:55;;;;;;;4.03;3.17;;;0.00;99.90;;;;;;5017413;28;20442;-78
2023/01/18 01:46:30;;;;;;;3.37;3.07;;;-0.20;99.90;;;;;;5013628;28;21011;-79
2023/01/18 01:49:04;;;;;;;5.50;3.53;;;-0.50;99.90;;;;;;5016597;28;20477;-78
2023/01/18 01:51:34;;;;;;;3.50;3.03;;;-0.30;99.90;;;;;;5012521;28;20481;-79
2023/01/18 01:54:04;;;;;;;5.27;3.57;;;-0.30;99.90;;;;;;5022554;28;20456;-79
2023/01/18 01:56:31;;;;;;;5.80;3.40;;;-0.30;99.90;;;;;;5016004;28;20447;-79
2023/01/18 01:59:01;;;;;;;2.83;2.50;;;-0.20;99.90;;;;;;5018424;28;20461;-79
2023/01/18 02:01:29;;;;;;;3.10;2.80;;;-0.10;99.90;;;;;;5013058;28;20461;-79
2023/01/18 02:03:59;;;;;;;3.70;3.10;;;0.20;99.90;;;;;;5011619;28;20466;-79
2023/01/18 02:06:32;;;;;;;4.80;2.50;;;0.70;99.90;;;;;;5008694;28;20570;-79
2023/01/18 02:09:00;;;;;;;5.90;3.03;;;0.30;99.90;;;;;;5015524;28;20933;-81
2023/01/18 02:11:28;;;;;;;3.60;2.97;;;0.20;99.90;;;;;;5017916;28;20450;-79
2023/01/18 02:13:58;;;;;;;2.97;2.53;;;0.00;99.90;;;;;;5016949;28;20447;-78
2023/01/18 02:16:37;;;;;;;4.43;2.90;;;-0.10;99.90;;;;;;5015180;28;20447;-85
2023/01/18 02:19:17;;;;;;;3.77;2.80;;;-0.60;99.90;;;;;;5014293;28;20895;-79
2023/01/18 02:21:48;;;;;;;4.67;2.90;;;-0.40;99.90;;;;;;5015649;28;20522;-78
2023/01/18 02:24:53;;;;;;;5.40;2.77;;;-0.30;99.90;;;;;;5014751;28;20435;-78
2023/01/18 02:27:22;;;;;;;3.03;2.70;;;-0.30;99.90;;;;;;5015573;28;20438;-79
2023/01/18 02:30:08;;;;;;;2.00;1.80;;;-0.30;99.90;;;;;;5009323;28;20931;-79
2023/01/18 02:33:04;;;;;;;2.50;2.30;;;-0.20;99.90;;;;;;5009882;28;20547;-78
2023/01/18 02:35:38;;;;;;;2.73;1.90;;;0.20;99.90;;;;;;5011544;28;20471;-80
2023/01/18 02:38:09;;;;;;;2.20;2.00;;;0.20;99.90;;;;;;5009699;28;20446;-79
2023/01/18 02:40:46;;;;;;;2.20;1.63;;;0.10;99.90;;;;;;5018748;28;20534;-81
2023/01/18 02:48:51;;;;;;;1.93;1.77;;;1.00;99.90;;;;;;5011561;28;20459;-78
2023/01/18 02:51:18;;;;;;;2.37;1.70;;;0.90;99.90;;;;;;5020780;28;20485;-80
2023/01/18 02:53:47;;;;;;;2.00;1.50;;;0.90;99.90;;;;;;5386727;22;20487;-80
2023/01/18 02:56:17;;;;;;;1.67;1.57;;;0.60;99.90;;;;;;4967918;28;20845;-77
2023/01/18 02:58:47;;;;;;;4.17;1.80;;;1.20;99.90;;;;;;4971290;28;20450;-80
2023/01/18 03:01:25;;;;;;;2.10;1.90;;;1.30;99.90;;;;;;4983609;28;20764;-79
2023/01/18 03:03:56;;;;;;;3.43;2.10;;;1.30;99.90;;;;;;4980838;28;20448;-79
2023/01/18 03:06:27;;;;;;;1.50;1.40;;;1.10;99.90;;;;;;4978660;28;20604;-79
2023/01/18 03:08:56;;;;;;;3.50;2.10;;;1.20;99.90;;;;;;4977535;28;20466;-80
2023/01/18 03:11:30;;;;;;;2.20;2.00;;;1.30;99.90;;;;;;4983532;28;20470;-79
2023/01/18 03:14:05;;;;;;;1.53;1.43;;;1.30;99.90;;;;;;4978455;28;20460;-81
2023/01/18 03:16:57;;;;;;;2.23;2.03;;;1.30;99.90;;;;;;4972476;28;20987;-81
2023/01/18 03:23:36;;;;;;;2.80;1.70;;;1.20;99.90;;;;;;4976061;28;20523;-80
2023/01/18 03:25:12;;;;;;;1.57;1.37;;;1.20;99.90;;;;;;4979842;28;20502;-80
2023/01/18 03:36:00;;;;;;;1.40;1.30;;;1.30;99.90;;;;;;4980267;28;20995;-80
2023/01/18 03:38:28;;;;;;;1.93;1.40;;;1.30;99.90;;;;;;4972422;28;20453;-82
2023/01/18 03:40:55;;;;;;;1.50;1.20;;;1.30;99.90;;;;;;4976707;28;20460;-80
2023/01/18 03:43:24;;;;;;;1.50;1.37;;;1.10;99.90;;;;;;4974023;28;20747;-79
2023/01/18 03:45:52;;;;;;;1.33;1.23;;;1.10;99.90;;;;;;4981783;28;20497;-81
2023/01/18 03:48:21;;;;;;;2.20;1.37;;;1.20;99.90;;;;;;4981117;28;20478;-83
2023/01/18 03:50:51;;;;;;;1.57;1.47;;;1.20;99.90;;;;;;4977782;28;20449;-80
2023/01/18 03:53:28;;;;;;;2.10;1.37;;;1.20;99.90;;;;;;4977263;28;20536;-78
2023/01/18 03:56:00;;;;;;;1.70;1.33;;;1.20;99.90;;;;;;4982792;28;20476;-79
2023/01/18 03:58:34;;;;;;;1.80;1.30;;;1.10;99.90;;;;;;4985392;28;20776;-79
2023/01/18 04:01:02;;;;;;;1.53;1.20;;;1.00;99.90;;;;;;4970703;28;20953;-78
2023/01/18 04:03:31;;;;;;;1.23;1.13;;;1.10;99.90;;;;;;4971938;28;20446;-81
2023/01/18 04:05:58;;;;;;;1.40;1.30;;;1.10;99.90;;;;;;4978476;28;20480;-80
2023/01/18 04:08:25;;;;;;;1.30;1.20;;;1.10;99.90;;;;;;4972120;28;21316;-79
2023/01/18 04:10:52;;;;;;;1.20;1.10;;;1.20;99.90;;;;;;4971843;28;20524;-78
2023/01/18 04:13:19;;;;;;;2.40;1.33;;;1.30;99.90;;;;;;4975317;28;20459;-78
2023/01/18 04:15:45;;;;;;;4.97;1.60;;;1.40;99.90;;;;;;4971488;28;21037;-79
2023/01/18 04:18:12;;;;;;;1.57;1.47;;;1.30;99.90;;;;;;4981842;28;20833;-78
2023/01/18 04:20:40;;;;;;;3.20;1.93;;;1.30;99.90;;;;;;4977573;28;20457;-78
2023/01/18 04:23:07;;;;;;;2.63;1.37;;;1.40;99.90;;;;;;4973841;28;20809;-77
2023/01/18 04:25:34;;;;;;;1.40;1.30;;;1.40;99.90;;;;;;4979828;28;20485;-77
2023/01/18 04:28:01;;;;;;;3.00;1.70;;;1.40;99.90;;;;;;4974053;28;20466;-77
2023/01/18 04:30:28;;;;;;;1.40;1.30;;;1.40;99.90;;;;;;4962177;28;20537;-77
2023/01/18 04:32:54;;;;;;;1.30;1.20;;;1.50;99.90;;;;;;4967266;28;21058;-78
2023/01/18 04:35:21;;;;;;;1.83;1.40;;;1.50;99.90;;;;;;4973539;28;20801;-78
2023/01/18 04:37:52;;;;;;;1.50;1.30;;;1.40;99.90;;;;;;4972368;28;20433;-79
2023/01/18 04:40:19;;;;;;;2.70;2.10;;;1.40;99.90;;;;;;4973490;28;20438;-79
2023/01/18 04:42:52;;;;;;;2.33;1.50;;;1.50;99.90;;;;;;4975143;28;20463;-79
2023/01/18 04:45:19;;;;;;;1.70;1.60;;;1.40;99.90;;;;;;4975159;28;20454;-78
2023/01/18 04:47:46;;;;;;;3.77;1.60;;;1.50;99.90;;;;;;4974779;28;20492;-78
2023/01/18 04:50:13;;;;;;;1.60;1.50;;;1.50;99.90;;;;;;4979787;28;20497;-78
2023/01/18 04:52:40;;;;;;;1.87;1.67;;;1.50;99.90;;;;;;4977969;28;20464;-79
2023/01/18 04:55:14;;;;;;;1.77;1.40;;;1.40;99.90;;;;;;4976179;28;20469;-78
2023/01/18 04:57:41;;;;;;;3.20;1.47;;;1.50;99.90;;;;;;4979251;28;20445;-82
2023/01/18 05:00:09;;;;;;;1.30;1.20;;;1.80;99.90;;;;;;4973307;28;20454;-78
2023/01/18 05:02:36;;;;;;;2.60;1.73;;;1.50;99.90;;;;;;4972205;28;20456;-78
2023/01/18 05:05:04;;;;;;;1.50;1.27;;;1.70;99.90;;;;;;4981895;28;20480;-85
2023/01/18 05:07:32;;;;;;;1.40;1.30;;;1.70;99.90;;;;;;4990864;28;20520;-76
2023/01/18 05:09:59;;;;;;;1.20;1.10;;;1.70;99.90;;;;;;4974142;28;20537;-77
2023/01/18 05:12:27;;;;;;;4.70;1.23;;;1.70;99.90;;;;;;4976513;28;20453;-77
2023/01/18 05:14:54;;;;;;;1.30;1.20;;;1.60;99.90;;;;;;4976669;28;20458;-83
2023/01/18 05:17:21;;;;;;;1.93;1.20;;;1.70;99.90;;;;;;4979779;28;20944;-84
2023/01/18 05:19:48;;;;;;;2.13;1.20;;;1.70;99.90;;;;;;4980063;28;20458;-84
2023/01/18 05:22:15;;;;;;;2.20;1.20;;;1.70;99.90;;;;;;4979148;28;20464;-83
2023/01/18 05:24:41;;;;;;;1.67;1.30;;;1.70;99.90;;;;;;4972621;28;20456;-77
2023/01/18 05:27:08;;;;;;;3.63;1.77;;;1.80;99.90;;;;;;4969640;28;20536;-78
2023/01/18 05:29:36;;;;;;;1.53;1.40;;;1.90;99.90;;;;;;4971144;28;20473;-76
2023/01/18 05:32:05;;;;;;;5.50;1.90;;;1.80;99.90;;;;;;4973723;28;20858;-79
2023/01/18 05:34:31;;;;;;;3.53;1.40;;;1.80;99.90;;;;;;4991148;28;20854;-76
2023/01/18 05:36:58;;;;;;;1.60;1.40;;;1.90;99.90;;;;;;4997135;28;20456;-77
2023/01/18 05:39:25;;;;;;;2.40;1.90;;;1.80;99.90;;;;;;4990899;28;20517;-80
2023/01/18 05:41:59;;;;;;;1.70;1.60;;;1.90;99.90;;;;;;4993672;28;20765;-82
2023/01/18 05:44:27;;;;;;;2.10;1.53;;;1.90;99.90;;;;;;4981680;28;20429;-79
2023/01/18 05:46:55;;;;;;;1.93;1.83;;;1.80;99.90;;;;;;4983680;28;20576;-80
2023/01/18 05:49:22;;;;;;;2.20;1.80;;;1.70;99.90;;;;;;4977074;28;20564;-80
2023/01/18 05:51:49;;;;;;;1.97;1.83;;;1.80;99.90;;;;;;4976713;28;20453;-83
2023/01/18 05:54:16;;;;;;;2.57;2.33;;;1.60;99.90;;;;;;4976857;28;20488;-77
2023/01/18 05:56:43;;;;;;;1.50;1.30;;;1.90;99.90;;;;;;4972007;28;20480;-78
2023/01/18 05:59:10;;;;;;;2.10;1.30;;;1.80;99.90;;;;;;4981278;28;20461;-83
2023/01/18 06:01:37;;;;;;;2.00;1.80;;;1.60;99.90;;;;;;4980850;28;20454;-80
2023/01/18 06:04:05;;;;;;;1.97;1.70;;;1.70;99.90;;;;;;4978807;28;20555;-78
2023/01/18 06:06:32;;;;;;;3.07;1.80;;;1.90;99.90;;;;;;4982712;28;20501;-83
2023/01/18 06:09:00;;;;;;;1.80;1.70;;;1.70;99.90;;;;;;4990672;28;20496;-87
2023/01/18 06:11:27;;;;;;;1.53;1.43;;;1.60;99.90;;;;;;4991286;28;20453;-83
2023/01/18 06:13:53;;;;;;;2.50;2.00;;;1.60;99.90;;;;;;4994279;28;20479;-85
2023/01/18 06:16:20;;;;;;;3.00;1.90;;;1.70;99.90;;;;;;4992715;28;20442;-82
2023/01/18 06:18:47;;;;;;;2.10;1.80;;;1.70;99.90;;;;;;4989910;28;20445;-83
2023/01/18 06:21:16;;;;;;;2.70;1.93;;;1.50;99.90;;;;;;4977860;28;20454;-82
2023/01/18 06:23:43;;;;;;;1.53;1.43;;;1.80;99.90;;;;;;4979346;28;20469;-78
2023/01/18 06:26:10;;;;;;;3.23;1.67;;;1.70;99.90;;;;;;4975037;28;20460;-80
2023/01/18 06:28:37;;;;;;;3.20;2.07;;;1.70;99.90;;;;;;4979528;28;20456;-77
2023/01/18 06:31:06;;;;;;;2.93;1.80;;;1.70;99.90;;;;;;4973515;28;20466;-84
2023/01/18 06:33:34;;;;;;;4.07;1.83;;;1.70;99.90;;;;;;4988965;28;20564;-85
2023/01/18 06:36:01;;;;;;;2.87;1.63;;;1.70;99.90;;;;;;4983414;28;20458;-80
2023/01/18 06:38:30;;;;;;;2.67;1.73;;;1.60;99.90;;;;;;4980734;28;20598;-82
2023/01/18 06:40:57;;;;;;;3.00;1.73;;;1.70;99.90;;;;;;4978868;28;20520;-84
2023/01/18 06:43:24;;;;;;;1.67;1.57;;;1.70;99.90;;;;;;4980629;28;20521;-81
2023/01/18 06:45:55;;;;;;;4.80;2.00;;;1.70;99.90;;;;;;4982388;28;20462;-82
2023/01/18 06:48:22;;;;;;;2.47;2.03;;;1.50;99.90;;;;;;4986250;28;20501;-83
2023/01/18 06:50:51;;;;;;;3.10;2.10;;;1.60;99.90;;;;;;4986190;28;20455;-82
2023/01/18 06:53:18;;;;;;;2.60;1.43;;;1.60;99.90;;;;;;4985594;28;20584;-83
2023/01/18 06:55:55;;;;;;;2.37;2.17;;;1.60;99.90;;;;;;4983452;28;20551;-81
2023/01/18 06:58:22;;;;;;;2.07;1.70;;;1.90;99.90;;;;;;4984481;28;20563;-81
2023/01/18 07:00:50;;;;;;;1.70;1.53;;;1.70;99.90;;;;;;4974675;28;20453;-79
2023/01/18 07:03:17;;;;;;;4.10;1.60;;;1.70;99.90;;;;;;4989539;28;20462;-79
2023/01/18 07:05:45;;;;;;;3.00;1.90;;;1.60;99.90;;;;;;4991546;28;20458;-81
2023/01/18 07:08:12;;;;;;;1.90;1.53;;;1.70;99.90;;;;;;4997896;28;20481;-74
2023/01/18 07:10:38;;;;;;;2.07;1.87;;;1.70;99.90;;;;;;4989981;28;20533;-79
2023/01/18 07:13:07;;;;;;;2.17;1.73;;;1.70;99.90;;;;;;4991503;28;20465;-81
2023/01/18 07:15:34;;;;;;;2.27;1.40;;;1.70;99.90;;;;;;5741461;23;20576;-86
2023/01/18 07:18:01;;;;;;;2.47;1.70;;;1.90;99.90;;;;;;5226090;23;20446;-83
2023/01/18 07:20:28;;;;;;;2.50;1.73;;;1.60;99.90;;;;;;5017056;28;20468;-84
2023/01/18 07:25:30;;;;;;;4.20;1.77;;;1.80;99.90;;;;;;6059840;23;21473;-82
2023/01/18 07:27:57;;;;;;;1.50;1.40;;;1.80;99.90;;;;;;5015296;28;20467;-80
2023/01/18 07:30:25;;;;;;;2.47;2.30;;;1.80;99.90;;;;;;5005105;28;20446;-80
2023/01/18 07:32:53;;;;;;;1.50;1.40;;;1.70;99.90;;;;;;5012498;28;20457;-89
2023/01/18 07:35:21;;;;;;;1.60;1.50;;;1.90;99.90;;;;;;5017047;28;20453;-84
2023/01/18 07:37:49;;;;;;;2.70;1.80;;;1.90;99.90;;;;;;5015186;28;20515;-90
2023/01/18 07:40:17;;;;;;;2.23;1.50;;;1.90;99.90;;;;;;5010658;28;20455;-88
2023/01/18 07:42:44;;;;;;;2.80;1.30;;;2.00;99.90;;;;;;5015412;28;20428;-86
2023/01/18 07:45:12;;;;;;;1.27;1.17;;;2.00;99.90;;;;;;5016324;28;20425;-84
2023/01/18 07:47:40;;;;;;;2.60;1.70;;;2.20;99.90;;;;;;5126632;23;20576;-85
2023/01/18 07:50:08;;;;;;;3.90;1.90;;;2.00;99.90;;;;;;5444306;23;20484;-81
2023/01/18 07:52:35;;;;;;;3.63;1.57;;;2.20;99.90;;;;;;5318141;23;20485;-84
2023/01/18 07:55:02;;;;;;;2.60;2.40;;;2.40;99.90;;;;;;5178744;23;20479;-88
2023/01/18 07:57:30;;;;;;;2.37;1.60;;;2.10;99.90;;;;;;5038301;28;20439;-84
2023/01/18 07:59:57;;;;;;;4.43;1.27;;;2.10;99.90;;;;;;5039487;28;20511;-89
2023/01/18 08:02:24;;;;;;;2.50;1.30;;;1.60;99.90;;;;;;5038428;28;20504;-87
2023/01/18 08:04:53;;;;;;;1.43;1.20;;;2.60;99.90;;;;;;5230233;23;20473;-83
2023/01/18 08:07:20;;;;;;;1.30;1.20;;;3.80;99.90;;;;;;5021144;28;20480;-82
2023/01/18 08:09:47;;;;;;;1.83;1.20;;;2.50;99.90;;;;;;5016683;28;20895;-82
2023/01/18 08:12:17;;;;;;;2.87;1.00;;;2.20;99.90;;;;;;5018562;28;20537;-81
2023/01/18 08:17:15;;;;;;;1.87;1.27;;;2.50;99.90;;;;;;5018455;28;20532;-85
2023/01/18 08:19:43;;;;;;;1.73;1.10;;;3.20;99.90;;;;;;5322334;23;20500;-81
2023/01/18 08:27:17;;;;;;;2.90;1.73;;;2.60;99.90;;;;;;5019067;28;20492;-88
2023/01/18 08:29:47;;;;;;;1.63;1.53;;;2.50;99.90;;;;;;5114979;23;20479;-82
2023/01/18 08:37:22;;;;;;;1.77;1.23;;;2.50;99.90;;;;;;5095788;23;20483;-82
2023/01/18 08:39:49;;;;;;;6.67;1.50;;;2.70;99.90;;;;;;5040093;28;20433;-87
2023/01/18 08:42:18;;;;;;;3.70;1.67;;;2.60;99.90;;;;;;5036463;28;20482;-88
2023/01/18 08:44:46;;;;;;;1.40;1.30;;;3.30;99.90;;;;;;5038318;28;20443;-86
2023/01/18 08:47:14;;;;;;;3.83;1.90;;;2.20;99.90;;;;;;5037917;28;20487;-88
2023/01/18 08:52:17;;;;;;;1.67;1.37;;;2.70;99.90;;;;;;5912211;23;20475;-88
2023/01/18 08:54:44;;;;;;;2.47;2.27;;;2.70;99.90;;;;;;5024770;28;20448;-79
2023/01/18 08:57:11;;;;;;;5.77;1.60;;;2.70;99.90;;;;;;5033990;28;20450;-78
2023/01/18 08:59:39;;;;;;;2.47;1.67;;;2.80;99.90;;;;;;5037852;28;20448;-82
2023/01/18 09:02:06;;;;;;;2.40;1.43;;;2.80;99.90;;;;;;5039291;28;20472;-85
2023/01/18 09:04:33;;;;;;;1.53;1.10;;;2.80;99.90;;;;;;5032170;28;20439;-86
2023/01/18 09:07:00;;;;;;;3.73;1.83;;;2.80;99.90;;;;;;5038297;28;20484;-88
2023/01/18 09:09:27;;;;;;;1.80;1.70;;;2.90;99.90;;;;;;5038111;28;20452;-88
2023/01/18 09:11:55;;;;;;;2.07;1.60;;;3.00;99.90;;;;;;5039419;28;20439;-81
2023/01/18 09:14:21;;;;;;;1.50;1.40;;;3.00;99.90;;;;;;5036310;28;20452;-83
2023/01/18 09:16:50;;;;;;;2.00;1.63;;;3.00;99.90;;;;;;5038989;28;20470;-84
2023/01/18 09:19:16;;;;;;;1.77;1.27;;;3.00;99.90;;;;;;5016299;28;20488;-82
2023/01/18 09:21:45;;;;;;;2.33;1.30;;;2.90;99.90;;;;;;5018831;28;20528;-85
2023/01/18 09:24:12;;;;;;;1.40;1.30;;;3.00;99.90;;;;;;5016690;28;20472;-90
2023/01/18 09:26:39;;;;;;;2.03;1.80;;;3.00;99.90;;;;;;5019438;28;20463;-85
2023/01/18 09:29:06;;;;;;;2.00;1.47;;;3.00;99.90;;;;;;5010801;28;20957;-87
2023/01/18 09:31:33;;;;;;;3.17;1.53;;;3.00;99.90;;;;;;5007428;28;20445;-87
2023/01/18 09:34:01;;;;;;;1.60;1.50;;;3.00;99.90;;;;;;5015663;28;20539;-85
2023/01/18 09:36:29;;;;;;;1.87;1.77;;;3.00;99.90;;;;;;5037657;28;20460;-86
2023/01/18 09:38:57;;;;;;;4.03;1.40;;;3.10;99.90;;;;;;5034560;28;20526;-88
2023/01/18 09:43:58;;;;;;;2.30;1.70;;;3.10;99.90;;;;;;5017071;28;20461;-80
2023/01/18 09:46:26;;;;;;;2.97;1.80;;;3.20;99.90;;;;;;5041120;23;20551;-88
2023/01/18 09:48:56;;;;;;;3.67;1.60;;;2.50;99.90;;;;;;5033665;28;20495;-86
2023/01/18 09:51:29;;;;;;;2.03;1.60;;;2.70;99.90;;;;;;5034469;28;20459;-88
2023/01/18 09:54:08;;;;;;;2.97;1.10;;;2.80;99.90;;;;;;5028995;28;20456;-89
2023/01/18 09:56:42;;;;;;;2.40;1.73;;;2.80;99.90;;;;;;5035181;28;20471;-89
2023/01/18 09:59:20;;;;;;;1.70;1.57;;;3.00;99.90;;;;;;5030353;28;20537;-88
2023/01/18 10:01:48;;;;;;;1.30;1.20;;;2.90;99.90;;;;;;5032737;28;20467;-84
2023/01/18 10:04:18;;;;;;;5.30;1.90;;;2.90;99.90;;;;;;5032568;28;20506;-85
2023/01/18 10:06:50;;;;;;;4.10;1.43;;;3.10;99.90;;;;;;5028773;28;20505;-86
2023/01/18 10:09:21;;;;;;;1.70;1.60;;;2.80;99.90;;;;;;5019289;28;20535;-86
2023/01/18 10:11:54;;;;;;;3.00;1.60;;;2.90;99.90;;;;;;5012484;28;20457;-86
2023/01/18 10:14:30;;;;;;;5.47;1.70;;;3.00;99.90;;;;;;5014747;28;20461;-86
2023/01/18 10:17:02;;;;;;;2.33;1.60;;;2.90;99.90;;;;;;5010572;28;20480;-87
2023/01/18 10:19:31;;;;;;;4.33;1.93;;;3.40;99.90;;;;;;5013180;28;20519;-86
2023/01/18 10:22:06;;;;;;;3.20;1.70;;;2.90;99.90;;;;;;5012069;28;20453;-87
2023/01/18 10:24:48;;;;;;;1.77;1.67;;;2.70;99.90;;;;;;5018782;28;20491;-84
2023/01/18 10:27:34;;;;;;;1.63;1.53;;;2.80;99.90;;;;;;5008344;28;20460;-87
2023/01/18 10:30:18;;;;;;;2.23;1.40;;;2.70;99.90;;;;;;5011474;28;20440;-88
2023/01/18 10:32:52;;;;;;;1.93;1.27;;;2.70;99.90;;;;;;5015528;28;20505;-87
2023/01/18 10:35:26;;;;;;;2.33;1.37;;;2.70;99.90;;;;;;5015765;28;20482;-88
2023/01/18 10:37:57;;;;;;;5.33;1.50;;;2.60;99.90;;;;;;5012780;28;20445;-87
2023/01/18 10:40:24;;;;;;;1.50;1.33;;;2.70;99.90;;;;;;5025007;28;20436;-81
2023/01/18 10:42:55;;;;;;;2.60;2.13;;;2.70;99.90;;;;;;5036232;28;20474;-88
2023/01/18 10:45:24;;;;;;;2.47;1.37;;;2.70;99.90;;;;;;5033328;28;20509;-89
2023/01/18 10:47:52;;;;;;;1.67;1.57;;;2.50;99.90;;;;;;5032865;28;20562;-86
2023/01/18 10:50:21;;;;;;;1.43;1.33;;;2.40;99.90;;;;;;5034862;28;20467;-82
2023/01/18 10:52:48;;;;;;;1.60;1.50;;;2.30;99.90;;;;;;5037355;28;20483;-87
2023/01/18 10:55:19;;;;;;;1.30;1.20;;;2.20;99.90;;;;;;5037820;28;20455;-86
2023/01/18 10:57:48;;;;;;;1.40;1.27;;;2.30;99.90;;;;;;5023057;28;20471;-83
2023/01/18 11:00:21;;;;;;;1.77;1.33;;;2.40;99.90;;;;;;5017801;28;20479;-85
2023/01/18 11:02:50;;;;;;;1.53;1.10;;;2.50;99.90;;;;;;5014895;28;20449;-90
2023/01/18 11:05:23;;;;;;;2.67;1.53;;;2.40;99.90;;;;;;5013590;28;20456;-87
2023/01/18 11:08:12;;;;;;;2.50;1.83;;;2.50;99.90;;;;;;5013194;28;20495;-82
2023/01/18 11:10:42;;;;;;;1.43;1.30;;;2.60;99.90;;;;;;5015180;28;20476;-87
2023/01/18 11:13:29;;;;;;;1.57;1.40;;;2.60;99.90;;;;;;5017175;28;20468;-88
2023/01/18 11:16:11;;;;;;;1.33;1.23;;;2.60;99.90;;;;;;5012962;28;20463;-89
2023/01/18 11:18:39;;;;;;;1.90;1.40;;;2.60;99.90;;;;;;5015870;28;20470;-85
2023/01/18 11:21:10;;;;;;;1.60;1.47;;;2.70;99.90;;;;;;5014119;28;20460;-87
2023/01/18 11:23:37;;;;;;;1.63;1.53;;;2.70;99.90;;;;;;5012244;28;20487;-87
2023/01/18 11:26:08;;;;;;;1.70;1.60;;;2.60;99.90;;;;;;5015822;28;20472;-90
2023/01/18 11:28:39;;;;;;;1.30;1.20;;;2.60;99.90;;;;;;5018297;28;20469;-85
2023/01/18 11:31:09;;;;;;;1.70;1.60;;;2.50;99.90;;;;;;5031440;28;20459;-88
2023/01/18 11:33:41;;;;;;;1.67;1.57;;;2.50;99.90;;;;;;5039735;28;20473;-85
2023/01/18 11:36:09;;;;;;;1.43;1.33;;;2.30;99.90;;;;;;5039965;28;20483;-85
2023/01/18 11:38:35;;;;;;;4.97;1.87;;;2.60;99.90;;;;;;5040178;28;20447;-85
2023/01/18 11:41:14;;;;;;;1.63;1.53;;;2.30;99.90;;;;;;5040804;28;20468;-83
2023/01/18 11:43:53;;;;;;;1.73;1.60;;;2.00;99.90;;;;;;5041842;28;20507;-80
2023/01/18 11:46:33;;;;;;;2.10;2.00;;;2.00;99.90;;;;;;5040888;28;20468;-88
2023/01/18 11:49:10;;;;;;;2.23;2.03;;;2.10;99.90;;;;;;5034988;28;20495;-88
2023/01/18 11:51:42;;;;;;;2.30;2.03;;;2.10;99.90;;;;;;5039511;28;20450;-81
2023/01/18 11:54:21;;;;;;;3.60;2.60;;;2.10;99.90;;;;;;5038209;28;20478;-87
2023/01/18 11:56:54;;;;;;;4.70;2.80;;;3.20;99.90;;;;;;5041059;28;20486;-86
2023/01/18 11:59:25;;;;;;;2.00;1.80;;;2.40;99.90;;;;;;5035622;28;20539;-89
2023/01/18 12:02:12;;;;;;;2.30;1.90;;;2.20;99.90;;;;;;5029667;28;20433;-89
2023/01/18 12:04:54;;;;;;;1.80;1.40;;;2.30;99.90;;;;;;5000951;28;20540;-88
2023/01/18 12:07:38;;;;;;;2.43;2.23;;;2.20;99.90;;;;;;5014164;28;20502;-88
2023/01/18 12:10:09;;;;;;;3.83;2.00;;;2.20;99.90;;;;;;5017121;28;20475;-86
2023/01/18 12:12:55;;;;;;;2.10;1.90;;;2.20;99.90;;;;;;5020765;28;20557;-82
2023/01/18 12:15:42;;;;;;;1.63;1.40;;;2.10;99.90;;;;;;5020905;28;20457;-89
2023/01/18 12:18:22;;;;;;;1.73;1.63;;;2.00;99.90;;;;;;5018338;28;20456;-84
2023/01/18 12:20:59;;;;;;;1.63;1.47;;;1.90;99.90;;;;;;5021346;28;20442;-82
2023/01/18 12:23:51;;;;;;;2.63;1.50;;;1.90;99.90;;;;;;5019978;28;20491;-88
2023/01/18 12:26:29;;;;;;;1.63;1.53;;;2.10;99.90;;;;;;5018176;28;20441;-86
2023/01/18 12:29:25;;;;;;;2.50;1.80;;;2.10;99.90;;;;;;5014489;28;20480;-90
2023/01/18 12:32:05;;;;;;;2.40;1.60;;;2.40;99.90;;;;;;5012838;28;20485;-90
2023/01/18 12:34:40;;;;;;;1.70;1.60;;;2.40;99.90;;;;;;5016890;28;20436;-89
2023/01/18 12:37:28;;;;;;;1.63;1.53;;;2.50;99.90;;;;;;5017629;28;20433;-87
2023/01/18 12:40:16;;;;;;;2.13;1.90;;;1.80;99.90;;;;;;5018451;28;20549;-89
2023/01/18 12:42:55;;;;;;;2.13;1.93;;;2.20;99.90;;;;;;5019135;28;20523;-87
2023/01/18 12:45:32;;;;;;;2.90;2.10;;;2.20;99.90;;;;;;5014311;28;20484;-86
2023/01/18 12:48:09;;;;;;;3.27;3.00;;;2.30;99.90;;;;;;5012714;28;20533;-83
2023/01/18 12:50:39;;;;;;;3.33;2.40;;;2.20;99.90;;;;;;5014266;28;20444;-81
2023/01/18 12:53:17;;;;;;;2.60;2.37;;;2.50;99.90;;;;;;5016623;28;20438;-81
2023/01/18 12:55:49;;;;;;;4.23;3.00;;;2.50;99.90;;;;;;5015705;28;20488;-87
2023/01/18 12:58:20;;;;;;;3.30;3.00;;;2.40;99.90;;;;;;5016211;28;20517;-87
2023/01/18 13:00:53;;;;;;;3.13;2.67;;;2.00;99.90;;;;;;5015179;28;20448;-82
2023/01/18 13:03:25;;;;;;;2.63;2.27;;;2.30;99.90;;;;;;5017204;28;20625;-87
2023/01/18 13:05:56;;;;;;;3.37;2.93;;;2.10;99.90;;;;;;5016685;28;20500;-89
2023/01/18 13:11:06;;;;;;;2.83;2.60;;;1.70;99.90;;;;;;5151695;23;20493;-84
2023/01/18 13:13:34;;;;;;;3.97;2.97;;;1.90;99.90;;;;;;5033746;28;20498;-85
2023/01/18 13:16:21;;;;;;;3.00;2.80;;;2.10;99.90;;;;;;5039862;28;20436;-81
2023/01/18 13:18:55;;;;;;;2.50;2.30;;;2.10;99.90;;;;;;5039084;28;20446;-89
2023/01/18 13:21:33;;;;;;;3.40;3.20;;;2.40;99.90;;;;;;5032647;28;20455;-89
2023/01/18 13:24:09;;;;;;;4.37;3.80;;;2.70;99.90;;;;;;5032975;28;20437;-83
2023/01/18 13:26:36;;;;;;;5.13;4.37;;;2.40;99.90;;;;;;5129679;23;20548;-80
2023/01/18 13:29:15;;;;;;;3.70;3.40;;;1.90;99.90;;;;;;5038244;28;20522;-88
2023/01/18 13:31:44;;;;;;;4.30;3.90;;;1.80;99.90;;;;;;5038981;28;20527;-87
2023/01/18 13:34:27;;;;;;;3.53;3.23;;;2.10;99.90;;;;;;5036767;28;20429;-84
2023/01/18 13:36:54;;;;;;;4.17;3.87;;;2.70;99.90;;;;;;5033007;28;20447;-87
2023/01/18 13:39:22;;;;;;;3.97;3.27;;;2.00;99.90;;;;;;5038512;28;20440;-86
2023/01/18 13:42:21;;;;;;;4.27;3.23;;;2.10;99.90;;;;;;5030027;28;20446;-89
2023/01/18 13:44:50;;;;;;;3.33;3.03;;;2.70;99.90;;;;;;5032974;28;20456;-80
2023/01/18 13:47:46;;;;;;;3.77;2.63;;;2.70;99.90;;;;;;5034926;28;20420;-84
2023/01/18 13:50:39;;;;;;;4.17;3.10;;;2.30;99.90;;;;;;5017187;28;20495;-88
2023/01/18 13:53:25;;;;;;;3.70;3.40;;;1.70;99.90;;;;;;5016916;28;20457;-83
2023/01/18 13:56:26;;;;;;;4.83;3.13;;;1.60;99.90;;;;;;5315526;23;20547;-85
2023/01/18 13:59:02;;;;;;;3.50;3.20;;;2.60;99.90;;;;;;5037799;28;20438;-83
2023/01/18 14:01:34;;;;;;;4.10;3.80;;;2.20;99.90;;;;;;5037554;28;20443;-81
2023/01/18 14:04:22;;;;;;;4.23;2.83;;;2.50;99.90;;;;;;5030837;28;20444;-88
2023/01/18 14:06:50;;;;;;;2.77;2.57;;;1.90;99.90;;;;;;5034328;28;20459;-86
2023/01/18 14:09:19;;;;;;;3.93;3.20;;;2.30;99.90;;;;;;5037499;28;20479;-82
2023/01/18 14:11:53;;;;;;;4.90;3.03;;;2.00;99.90;;;;;;5035792;28;20452;-84
2023/01/18 14:14:27;;;;;;;3.80;3.40;;;1.50;99.90;;;;;;5035043;28;20531;-86